ベルファスト国際空港の過去48時間の天気

ベルファスト国際空港 (Belfast / Aldergrove Airport)

現在時刻: 11/26 23:09 GMT (11/26 23:09 UTC) 以下の時間は現地時間です。

過去48時間のMETAR気象情報
時間 風向 風速(m/s) 視程 気温(℃) 湿度(%) 気圧(hPa) 天気現象
26 22:50 10 10km以上 5 56 1001
26 22:20 11 10km以上 5 56 1001
26 21:50 10 10km以上 5 61 1000
26 21:20 11 10km以上 5 65 1000
26 20:50 9 10km以上 5 70 1000
26 20:20 9 10km以上 5 70 999
26 19:50 9 10km以上 5 70 998
26 19:20 8 10km以上 5 70 998
26 18:50 北北西 6 10km以上 4 81 998 弱い雨
26 18:20 北北西 6 10km以上 4 75 998 弱い雨
26 17:50 北北西 6 10km以上 4 81 997
26 17:20 北西 8 10km以上 4 81 997
26 16:50 北北西 10 10km以上 4 81 997
26 16:20 北北西 8 10km以上 4 81 997
26 15:50 北北西 9 10km以上 3 87 997 降水
26 15:20 北北西 8 10km以上 3 87 997
26 14:50 9 10km以上 3 87 997 弱いしゅう雨
26 14:20 北西 10 10km以上 3 87 997
26 13:50 北北西 13 10km以上 4 75 998 弱い雨 降水
26 13:20 北北西 10 6000m 4 81 998 弱い雨 雨
26 12:50 北北西 5 10km以上 5 81 998
26 12:20 北西 10 10km以上 4 87 998
26 11:50 北北西 8 10km以上 5 81 998 弱い雨
26 11:20 北北西 7 10km以上 5 81 998
26 10:50 6 10km以上 5 87 999
26 10:20 9 10km以上 5 87 999
26 09:50 8 10km以上 5 87 998
26 09:20 北西 11 10km以上 6 81 997
26 08:50 北北西 7 10km以上 5 87 997
26 08:20 北西 10 10km以上 6 81 997
26 07:50 北西 10 10km以上 6 87 997
26 07:20 北西 10 10km以上 6 87 997 しゅう雨
26 06:50 北西 10 10km以上 6 81 997
26 06:20 北西 9 10km以上 7 76 997 しゅう雨
26 05:50 北西 12 10km以上 8 76 997 しゅう雨
26 05:20 北西 9 10km以上 8 81 997
26 04:50 北西 10 10km以上 8 81 997
26 04:20 北西 8 10km以上 8 87 998
26 03:50 北西 9 10km以上 8 87 998
26 03:20 西北西 10 10km以上 9 87 998
26 02:50 西 9 10km以上 8 93 999 弱い雨
26 02:20 西 9 10km以上 8 93 1000 弱いしゅう雨
26 01:50 西 10 8000m 8 93 1001 弱いしゅう雨
26 01:20 西 10 10km以上 8 93 1002
26 00:50 西 10 7000m 7 93 1003 弱いしゅう雨
26 00:20 西 10 10km以上 7 93 1004
25 23:50 西 8 10km以上 7 93 1005
25 23:20 西 8 10km以上 7 93 1007
25 22:50 西南西 6 10km以上 6 100 1008
25 22:20 西南西 8 10km以上 6 93 1009
25 21:50 西南西 8 10km以上 6 93 1010
25 21:20 南西 8 10km以上 6 87 1010
25 20:50 南西 7 10km以上 6 87 1011
25 20:20 西南西 7 10km以上 6 87 1012
25 19:50 西南西 7 10km以上 6 87 1014
25 19:20 西南西 7 10km以上 6 87 1014
25 18:50 西南西 8 10km以上 5 87 1015
25 18:20 西 7 10km以上 5 87 1016
25 17:50 西 7 10km以上 5 87 1017
25 17:20 西 6 10km以上 6 81 1017
25 16:50 西北西 5 10km以上 5 81 1019
25 16:20 西北西 5 10km以上 5 81 1019
25 15:50 西 5 10km以上 6 81 1020
25 15:20 西 4 10km以上 5 87 1020
25 14:50 西北西 4 10km以上 6 81 1021
25 14:20 西北西 5 10km以上 6 81 1021
25 13:50 西北西 6 10km以上 6 81 1021
25 13:20 北西 6 10km以上 6 81 1022
25 12:50 北西 6 10km以上 6 81 1022
25 12:20 北西 5 10km以上 6 76 1022
25 11:50 北西 5 10km以上 6 81 1023
25 11:20 西北西 2 10km以上 6 81 1023
25 10:50 西北西 4 10km以上 6 81 1023
25 10:20 3 10km以上 6 76 1024 弱い霧雨
25 09:50 北北西 3 10km以上 5 81 1024
25 09:20 北北西 3 10km以上 4 87 1024
25 08:50 5 10km以上 5 81 1023
25 08:20 北北西 2 10km以上 4 81 1023
25 07:50 北西 2 10km以上 4 81 1024
25 07:20 北北西 4 10km以上 4 81 1023
25 06:50 3 10km以上 5 75 1023
25 06:20 北北西 3 10km以上 4 81 1023
25 05:50 5 10km以上 4 81 1022
25 05:20 4 10km以上 4 81 1022
25 04:50 北北西 4 10km以上 4 81 1022
25 04:20 北北西 5 10km以上 4 81 1022
25 03:50 北北西 4 10km以上 5 75 1022
25 03:20 6 10km以上 5 81 1022
25 02:50 4 10km以上 5 81 1022
25 02:20 北北西 6 10km以上 5 81 1022
25 01:50 北北西 3 10km以上 5 81 1022
25 01:20 北北西 4 10km以上 5 75 1022
25 00:50 6 10km以上 4 87 1022
25 00:20 北北東 3 10km以上 3 87 1022
24 23:50 北北西 6 10km以上 5 75 1021
24 23:20 5 10km以上 5 81 1021
EGAA 262250Z AUTO 36020G30KT 330V030 9999 NCD 05/M03 Q1001
EGAA 262220Z 36022G32KT CAVOK 05/M03 Q1001
EGAA 262150Z 36020G31KT CAVOK 05/M02 Q1000
EGAA 262120Z 36021G35KT 9999 FEW033 05/M01 Q1000
EGAA 262050Z 36017G30KT 9999 FEW022 SCT034 05/00 Q1000
EGAA 262020Z 35018KT 320V020 9999 BKN023 05/00 Q0999
EGAA 261950Z 36018KT 9999 FEW030CB 05/00 Q0998
EGAA 261920Z 36016G26KT 9999 SCT027 05/00 Q0998
EGAA 261850Z 34012KT 310V020 9999 -RA FEW028 SCT038 04/01 Q0998
EGAA 261820Z 34011KT 9999 -RA FEW035 04/00 Q0998
EGAA 261750Z 34012KT 9999 SCT029 SCT041 04/01 Q0997
EGAA 261720Z 32015KT 9999 FEW005 SCT047 04/01 Q0997 RERA
EGAA 261650Z 33020G31KT 9999 FEW008 SCT021TCU 04/01 Q0997
EGAA 261620Z 33016KT 9999 FEW008 SCT021TCU 04/01 Q0997
EGAA 261550Z 33017KT 9999 SCT021TCU SCT041 03/01 Q0997 RERA REUP
EGAA 261520Z 34016KT 310V010 9999 SCT008 SCT014CB 03/01 Q0997
EGAA 261450Z 35017G27KT 320V020 9999 -SHRA SCT008 SCT014CB 03/01 Q0997
EGAA 261420Z 32019G30KT 9999 FEW028TCU 03/01 Q0997 REUP
EGAA 261350Z 33025G39KT 9999 -RA FEW021CB 04/00 Q0998 RERA REUP
EGAA 261320Z AUTO 34019G31KT 6000 -RA SCT017/// SCT041/// //////CB 04/01 Q0998 REUP RERA
EGAA 261250Z AUTO 34009KT 9999 FEW027/// //////TCU 05/02 Q0998
EGAA 261220Z 32019KT 9999 FEW017CB 04/02 Q0998
EGAA 261150Z 34016G27KT 310V020 9999 -RA FEW015TCU SCT029 05/02 Q0998 REUP
EGAA 261120Z AUTO 33014KT 310V010 9999 FEW018/// //////CB 05/02 Q0998 REUP
EGAA 261050Z AUTO 35012KT 320V020 9999 SCT012/// //////TCU 05/03 Q0999 REDZ
EGAA 261020Z AUTO 35017G29KT 320V020 9999 BKN014/// //////TCU 05/03 Q0999
EGAA 260950Z AUTO 35015KT 9999 FEW016/// //////CB 05/03 Q0998 REUP
EGAA 260920Z AUTO 32021G31KT 9999 FEW022/// //////TCU 06/03 Q0997 REUP
EGAA 260850Z AUTO 33014KT 300V360 9999 FEW015/// SCT029/// BKN040/// //////TCU 05/03 Q0997
EGAA 260820Z AUTO 31020KT 9999 //////CB 06/03 Q0997
EGAA 260750Z AUTO 31019KT 9999 FEW026/// //////TCU 06/04 Q0997 REUP
EGAA 260720Z AUTO 32019KT 9999 FEW020/// SCT029/// //////CB 06/04 Q0997 RERA RESHRA
EGAA 260650Z AUTO 32019KT 9999 FEW025/// //////TCU 06/03 Q0997 RERA
EGAA 260620Z 31018KT 9999 FEW025 BKN040 07/03 Q0997 REUP RESHRA
EGAA 260550Z 32023G34KT 9999 SHRA FEW021CB 08/04 Q0997 REUP
EGAA 260520Z AUTO 31017KT 9999 FEW019/// //////CB 08/05 Q0997
EGAA 260450Z AUTO 31019KT 9999 BKN036 08/05 Q0997
EGAA 260420Z 31016KT 9999 FEW024 08/06 Q0998
EGAA 260350Z 31018G31KT 9999 FEW022CB SCT036 08/06 Q0998
EGAA 260320Z 29020KT 9999 SCT015 BKN022 09/07 Q0998 REUP RERA
EGAA 260250Z 27017KT 9999 -RA FEW009 BKN013 08/07 Q0999 RESHRA
EGAA 260220Z 27017KT 9999 -SHRA FEW009 BKN013 08/07 Q1000 RESHRA
EGAA 260150Z 27019KT 8000 -SHRA BKN018 08/07 Q1001
EGAA 260120Z 27019KT 9999 SCT018 BKN025 08/07 Q1002 REUP
EGAA 260050Z 26020KT 7000 -SHRA SCT022 BKN036 07/06 Q1003
EGAA 260020Z 26019KT 9999 SCT024 07/06 Q1004 REUP
EGAA 252350Z AUTO 26015KT 9999 SCT013 07/06 Q1005
EGAA 252320Z 26015KT 9999 SCT010 SCT017 07/06 Q1007 REUP
EGAA 252250Z AUTO 25012KT 9999 BKN005 BKN012 06/06 Q1008
EGAA 252220Z AUTO 24015KT 9999 BKN012 BKN027 06/05 Q1009
EGAA 252150Z AUTO 24015KT 9999 FEW008 BKN035 06/05 Q1010 REUP
EGAA 252120Z AUTO 23016KT 9999 SCT007 BKN014 BKN024 06/04 Q1010
EGAA 252050Z AUTO 23014KT 9999 BKN009 OVC015 06/04 Q1011
EGAA 252020Z 24013KT 9999 FEW012 BKN022 06/04 Q1012 REUP
EGAA 251950Z AUTO 24013KT 9999 BKN014 BKN033 BKN042 06/04 Q1014
EGAA 251920Z AUTO 25013KT 9999 FEW046 06/04 Q1014
EGAA 251850Z AUTO 25015KT 9999 NCD 05/03 Q1015
EGAA 251820Z AUTO 26013KT 9999 FEW040 05/03 Q1016
EGAA 251750Z 27013KT CAVOK 05/03 Q1017
EGAA 251720Z 27011KT CAVOK 06/03 Q1017
EGAA 251650Z 29009KT 9999 FEW027 05/02 Q1019
EGAA 251620Z AUTO 29009KT 9999 FEW027 SCT032 BKN046 05/02 Q1019
EGAA 251550Z AUTO 28010KT 9999 SCT036 BKN042 06/03 Q1020
EGAA 251520Z AUTO 26008KT 240V300 9999 FEW020 BKN049 05/03 Q1020
EGAA 251450Z AUTO 30008KT 9999 FEW019 SCT029 BKN042 06/03 Q1021
EGAA 251420Z AUTO 30010KT 9999 SCT039 06/03 Q1021
EGAA 251350Z AUTO 30012KT 9999 FEW024 SCT036 06/03 Q1021
EGAA 251320Z AUTO 31012KT 9999 SCT036 06/03 Q1022
EGAA 251250Z AUTO 31011KT 9999 FEW031 BKN043 06/03 Q1022
EGAA 251220Z AUTO 32009KT 9999 SCT033 BKN042 06/02 Q1022
EGAA 251150Z AUTO 31009KT 9999 FEW024 BKN043 06/03 Q1023
EGAA 251120Z AUTO 29004KT 9999 SCT026 SCT041 06/03 Q1023
EGAA 251050Z AUTO 30007KT 9999 SCT028 SCT047 06/03 Q1023
EGAA 251020Z AUTO 35006KT 310V010 9999 -DZ FEW029 BKN034 06/02 Q1024 RERA
EGAA 250950Z AUTO 34005KT 9999 FEW028 05/02 Q1024
EGAA 250920Z AUTO 34006KT 9999 NCD 04/02 Q1024
EGAA 250850Z AUTO 36009KT 9999 FEW013 SCT043 05/02 Q1023 RERA
EGAA 250820Z AUTO 33003KT 250V020 9999 NCD 04/01 Q1023
EGAA 250750Z AUTO 32003KT 290V350 9999 SCT025 04/01 Q1024
EGAA 250720Z AUTO 34008KT 9999 FEW026 04/01 Q1023
EGAA 250650Z AUTO 36006KT 330V040 9999 FEW025 SCT034 05/01 Q1023
EGAA 250620Z AUTO 34006KT 9999 SCT035 04/01 Q1023
EGAA 250550Z AUTO 35009KT 310V010 9999 NCD 04/01 Q1022
EGAA 250520Z AUTO 35008KT 9999 NCD 04/01 Q1022
EGAA 250450Z AUTO 33007KT 9999 NCD 04/01 Q1022
EGAA 250420Z AUTO 33010KT 9999 NCD 04/01 Q1022
EGAA 250350Z AUTO 33007KT 300V360 9999 NCD 05/01 Q1022
EGAA 250320Z AUTO 36011KT 9999 FEW022 05/02 Q1022
EGAA 250250Z AUTO 35008KT 310V030 9999 FEW026/// //////TCU 05/02 Q1022
EGAA 250220Z AUTO 33012KT 9999 FEW031 05/02 Q1022
EGAA 250150Z 34005KT 300V030 9999 SCT028 BKN039 05/02 Q1022
EGAA 250120Z 34008KT 9999 FEW034 05/01 Q1022
EGAA 250050Z AUTO 36011KT 330V030 9999 //////TCU 04/02 Q1022
EGAA 250020Z AUTO 02005KT 9999 FEW028 03/01 Q1022
EGAA 242350Z AUTO 34011KT 9999 FEW021 05/01 Q1021
EGAA 242320Z AUTO 35010KT 310V010 9999 NCD 05/02 Q1021